Airfield :
LOGIN :

Register | Disclaimer

   EN    FR    IT 

 










Legend :    VFR   Marginal VFR   IFR   Intensive IFR   Very Intensive IFR
Visi :
Ceiling :
>= 8 km
>= 3000ft
5 to 8 km
1000 to 3000 ft
1500m to 5 km
500 to 1000 ft
800 to 1500m
200 to 500 ft
< 800m
< 200 ft
Symbols :   Thunderstorms  Fog  Heavy snow  Heavy precipitations  Wind > 20 kt
SIGMETs :     Misc.  Thunderstorms  Icing  Turbulence  Mountain Waves  Volcanic Ashes






- Airport Elevation : 247 ft
- IATA code : BLL


EKBI - Billund

CURRENT METAR :
  • 061520Z AUTO 21013G25KT 2400 -RA BR OVC004/// 08/08 Q0995

EXPIRED METARs :
  • 061450Z AUTO 20013KT 170V230 3000 -RA BR OVC005/// 08/08 Q0995
  • 061420Z AUTO 20013KT 170V230 2900 RA OVC004/// 08/08 Q0995
  • 061350Z AUTO 21014KT 4000 RA OVC004/// 08/08 Q0996
  • 061320Z AUTO 21014KT 2600 -RA BR OVC004/// 09/08 Q0996
  • 061250Z AUTO 21013KT 170V230 3100 -RA OVC004/// 09/09 Q0996

TAF TAF EKBI
Valid from the 06 at 12:00 until the 07 at 12:00 UTC


061110Z 0612/0712 23015KT 2000 RADZ BR BKN003
TEMPO 0612/0621 23015G25KT 5000 -RADZ BKN008
BECMG 0621/0623 28012KT 9999 NSW SCT008 BKN015CB
TEMPO 0623/0707 29015G25KT SHRA BKN008
TEMPO 0707/0712 29015G25KT SHRA



MET'MAP, your aeronautical weather chart ! - Copyright ORBIFLY December 2007 - Disclaimer

ORBIFLY MET'MAP TEAM :

Programming & Development : Alexandra Zaïnal
Concept & original design : Baudouin d'Aumeries
Assistance for programming : Marc-Olivier Méhu
Technical & hardware support : Manuel Goepfert

Contact : metmap@orbifly.com




SOURCES & CREDITS :

   NOAA